createdAt,value
2022-10-21T00:03:06.382Z,9.10
2022-10-21T00:13:08.940Z,7.97
2022-10-21T00:23:11.205Z,6.72
2022-10-21T00:33:14.075Z,6.12
2022-10-21T00:43:17.276Z,5.70
2022-10-21T00:53:20.269Z,8.43
2022-10-21T01:03:25.714Z,9.38
2022-10-21T01:13:46.713Z,7.32
2022-10-21T01:24:26.636Z,5.50
2022-10-21T01:34:56.906Z,5.82
2022-10-21T01:45:33.668Z,5.35
2022-10-21T01:55:37.373Z,5.32
2022-10-21T02:05:40.833Z,5.57
2022-10-21T02:15:44.142Z,5.83
2022-10-21T02:25:50.796Z,5.83
2022-10-21T02:36:02.904Z,8.68
2022-10-21T02:46:11.062Z,12.90
2022-10-21T02:56:13.298Z,11.82
2022-10-21T03:06:15.882Z,11.90
2022-10-21T03:26:25.997Z,14.27
2022-10-21T03:36:28.733Z,12.93
2022-10-21T03:46:31.308Z,12.25
2022-10-21T03:56:33.792Z,13.93
2022-10-21T04:06:36.387Z,12.32
2022-10-21T04:16:39.168Z,14.00
2022-10-21T04:26:45.038Z,13.43
2022-10-21T04:36:47.760Z,12.37
2022-10-21T04:46:51.079Z,15.02
2022-10-21T04:56:53.481Z,12.33
2022-10-21T05:06:55.873Z,12.32
2022-10-21T05:16:58.138Z,10.95
2022-10-21T05:27:00.439Z,9.00
2022-10-21T05:37:02.982Z,10.85
2022-10-21T05:47:05.454Z,8.55
2022-10-21T05:57:08.248Z,8.38
2022-10-21T06:07:11.116Z,7.78
2022-10-21T06:17:13.627Z,6.85
2022-10-21T06:27:16.252Z,8.15
2022-10-21T06:37:20.049Z,7.40
2022-10-21T06:47:23.607Z,7.22
2022-10-21T06:57:28.050Z,6.40
2022-10-21T07:07:30.976Z,6.47
2022-10-21T07:17:33.501Z,5.47
2022-10-21T07:27:37.280Z,4.70
2022-10-21T07:37:42.569Z,2.90
2022-10-21T07:47:49.229Z,1.35
2022-10-21T07:57:53.627Z,1.02
2022-10-21T08:07:59.351Z,1.20
2022-10-21T08:18:03.354Z,0.50
2022-10-21T08:28:07.469Z,0.35
2022-10-21T08:48:18.999Z,0.30
2022-10-21T08:58:24.607Z,0.50
2022-10-21T09:08:36.422Z,0.50
2022-10-21T09:18:56.147Z,0.28
2022-10-21T09:29:16.504Z,0.43
2022-10-21T09:39:35.947Z,0.30
2022-10-21T09:50:05.950Z,0.22
2022-10-21T10:00:06.201Z,0.30
2022-10-21T10:10:32.974Z,0.40
2022-10-21T10:20:35.950Z,0.40
2022-10-21T10:30:56.848Z,1.10
2022-10-21T10:41:11.770Z,1.10
2022-10-21T10:51:35.979Z,1.77
2022-10-21T11:01:52.075Z,1.33
2022-10-21T11:11:57.608Z,2.12
2022-10-21T11:22:33.110Z,3.58
2022-10-21T11:33:00.548Z,3.05
2022-10-21T11:43:23.420Z,2.72
2022-10-21T11:53:39.275Z,2.50
2022-10-21T12:04:07.120Z,2.30
2022-10-21T12:14:35.568Z,2.03
2022-10-21T12:24:48.866Z,2.28
2022-10-21T12:34:55.133Z,2.50
2022-10-21T12:45:00.388Z,2.58
2022-10-21T12:55:10.222Z,2.20
2022-10-21T13:05:13.768Z,2.30
2022-10-21T13:15:22.350Z,1.73
2022-10-21T13:25:25.323Z,1.90
2022-10-21T13:35:43.267Z,1.75
2022-10-21T13:45:50.079Z,1.95
2022-10-21T13:56:01.394Z,1.45
2022-10-21T14:06:05.841Z,1.73
2022-10-21T14:16:10.110Z,1.65
2022-10-21T14:26:13.536Z,1.52
2022-10-21T14:36:28.671Z,1.37
2022-10-21T14:46:39.991Z,1.20
2022-10-21T14:56:44.906Z,1.42
2022-10-21T15:07:02.045Z,1.42
2022-10-21T15:17:10.784Z,1.40
2022-10-21T15:27:37.126Z,2.00
2022-10-21T15:37:40.549Z,1.40
2022-10-21T15:47:43.232Z,2.00
2022-10-21T15:57:45.935Z,1.90
2022-10-21T16:07:49.415Z,1.67
2022-10-21T16:17:55.254Z,1.73
2022-10-21T16:27:57.986Z,1.52
2022-10-21T16:38:00.511Z,1.73
2022-10-21T16:48:06.228Z,1.67
2022-10-21T16:58:08.987Z,2.15
2022-10-21T17:08:11.488Z,2.45
2022-10-21T17:18:15.733Z,2.10
2022-10-21T17:28:18.597Z,2.25
2022-10-21T17:38:21.621Z,1.98
2022-10-21T17:48:26.186Z,2.33
2022-10-21T17:58:30.134Z,2.47
2022-10-21T18:18:37.339Z,2.70
2022-10-21T18:28:40.053Z,2.30
2022-10-21T18:38:42.747Z,2.60
2022-10-21T18:48:45.744Z,2.15
2022-10-21T18:58:48.814Z,2.20
2022-10-21T19:08:51.665Z,2.37
2022-10-21T19:18:55.673Z,3.15
2022-10-21T19:29:04.456Z,3.83
2022-10-21T19:39:07.195Z,2.20
2022-10-21T19:49:12.163Z,2.10
2022-10-21T19:59:14.938Z,1.77
2022-10-21T20:09:17.665Z,1.42
2022-10-21T20:19:20.112Z,1.30
2022-10-21T20:29:22.575Z,1.50
2022-10-21T20:39:25.073Z,1.00
2022-10-21T20:49:27.779Z,0.82
2022-10-21T20:59:30.531Z,1.00
2022-10-21T21:09:50.672Z,0.70
2022-10-21T21:19:55.851Z,0.60
2022-10-21T21:29:59.280Z,0.75
2022-10-21T21:40:02.200Z,0.90
2022-10-21T21:50:05.070Z,1.02
2022-10-21T22:00:08.797Z,0.60
2022-10-21T22:10:12.107Z,0.73
2022-10-21T22:20:14.958Z,0.30
2022-10-21T22:30:17.951Z,0.20
2022-10-21T22:40:20.509Z,0.57
2022-10-21T22:50:23.173Z,0.47
2022-10-21T23:00:25.589Z,0.22
2022-10-21T23:10:27.973Z,0.30
2022-10-21T23:20:30.609Z,0.30
2022-10-21T23:30:32.884Z,0.22
2022-10-21T23:40:35.301Z,0.30
2022-10-21T23:50:42.243Z,0.28
